MGB weather

Mount Gambier Airport
South Australia, Australia

Public forecast

Using degrees Celsius for public forecast. Weather courtesy of forecast.io.

METAR (pilot weather report)

Retrieved 2019/03/22 22:30 UTC (23 minutes ago):

YMTG 222230Z AUTO 29009KT 9999 // BKN011 18/16 Q1008

TAF (pilot weather forecast)

Closest forecast is Avalon Airport, 175.4 nm (324.9 km) E. Retrieved 2019/03/22 18:00 UTC (5 hours ago):

TAF YMAV 221701Z 2218/2318 03013KT CAVOK FM230000 01018G28KT CAVOK FM230400 33014KT CAVOK FM230700 18016KT 9999 SCT050 FM230900 26008KT 9999 FEW020